Pineglen — VOGX — position and weather

sailwx.info

Track history (hours):
 
Tides and Currents Weather Stations Pressure Air Temp Water Temp Dewpoint Dewpoint Depression Visibility Wind Speed Wind Dir Waves Ship Positions

Pineglen

Last reported at 2016-Dec-22 01:04 UTC. Time now 2017-Jan-18 18:05 UTC.
Position N 45°30' W 073°31'.
Warning: this ship's position is 27 days out of date.

Length 225 m; draft 8 m.

Type: Cargo ship. MMSI: 316001839.

Date/timePositionNaut miles runAvg speedWind from/ knotsBaromVisibWave heightAir tempDewpointWater temp
2016-Dec-22 01:04N 45°30' W 073°31'1 1.3
2016-Dec-22 00:24N 45°29' W 073°31'3 3.4
2016-Dec-21 23:33N 45°26' W 073°30'3 1.3
2016-Dec-21 21:10N 45°24' W 073°34'1 0.8
2016-Dec-21 19:33N 45°24' W 073°36'4 3.8
2016-Dec-21 18:33N 45°25' W 073°41'8 7.9
2016-Dec-21 17:33N 45°21' W 073°51'4 3.8
2016-Dec-21 16:33N 45°19' W 073°55'1 0.8
2016-Dec-21 15:33N 45°18' W 073°56'4 3.8
2016-Dec-21 14:33N 45°15' W 073°58'254 6.8
2016-Dec-20 01:26N 43°16' W 079°12'3 3.3
2016-Dec-20 00:33N 43°13' W 079°13'  
2016-Dec-15 12:30N 46°53' W 091°48'1010.8
2016-Dec-15 11:33N 46°48' W 092°00'2 2.3
2016-Dec-15 10:33N 46°45' W 092°02'0 0.0
2016-Dec-15 09:33N 46°45' W 092°02'0 0.0
2016-Dec-15 08:33N 46°45' W 092°02'0 0.0
2016-Dec-15 07:33N 46°45' W 092°02'0 0.0
2016-Dec-15 06:33N 46°45' W 092°02'0 0.0
2016-Dec-15 05:21N 46°45' W 092°02'0 0.0
2016-Dec-15 04:33N 46°45' W 092°02'0 0.0
2016-Dec-15 03:33N 46°45' W 092°02'0 0.0
2016-Dec-15 02:21N 46°45' W 092°02'0 0.0
2016-Dec-15 01:24N 46°45' W 092°02'0 0.0
2016-Dec-15 00:27N 46°45' W 092°02'0 0.0
2016-Dec-14 23:30N 46°45' W 092°02'0 0.0
2016-Dec-14 22:30N 46°45' W 092°02'0 0.0
2016-Dec-14 21:30N 46°45' W 092°02'0 0.0
2016-Dec-14 20:27N 46°45' W 092°02'0 0.0
2016-Dec-14 19:33N 46°45' W 092°02'0 0.0
2016-Dec-14 18:33N 46°45' W 092°02'0 0.0
2016-Dec-14 17:33N 46°45' W 092°02'0 0.0
2016-Dec-14 16:33N 46°45' W 092°02'0 0.0
2016-Dec-14 15:33N 46°45' W 092°02'0 0.0
2016-Dec-14 14:33N 46°45' W 092°02'0 0.0
2016-Dec-14 13:24N 46°45' W 092°02'0 0.0
2016-Dec-14 12:24N 46°45' W 092°02'0 0.0
2016-Dec-14 11:24N 46°45' W 092°02'0 0.1
2016-Dec-14 10:27N 46°45' W 092°02'0 0.1
2016-Dec-14 09:27N 46°46' W 092°02'0 0.0
2016-Dec-14 08:27N 46°46' W 092°02'0 0.0
2016-Dec-14 07:30N 46°46' W 092°02'0 0.0
2016-Dec-14 06:27N 46°46' W 092°02'0 0.0
2016-Dec-14 05:33N 46°46' W 092°02'0 0.0
2016-Dec-14 04:33N 46°46' W 092°02'0 0.0
2016-Dec-14 03:33N 46°46' W 092°02'0 0.0
2016-Dec-14 02:33N 46°46' W 092°02'0 0.0
2016-Dec-14 01:21N 46°46' W 092°02'0 0.0
2016-Dec-14 00:33N 46°46' W 092°02'0 0.0
2016-Dec-13 23:33N 46°46' W 092°02'0 0.0
2016-Dec-13 22:33N 46°46' W 092°02'0 0.0
2016-Dec-13 21:24N 46°46' W 092°02'1 0.7
2016-Dec-13 20:31N 46°46' W 092°03'0 0.0
2016-Dec-13 19:22N 46°46' W 092°03'0 0.0
2016-Dec-13 18:22N 46°46' W 092°03'0 0.0
2016-Dec-13 17:22N 46°46' W 092°03'0 0.0
2016-Dec-13 16:07N 46°46' W 092°03'0 0.0
2016-Dec-13 15:25N 46°46' W 092°03'0 0.0
2016-Dec-13 14:25N 46°46' W 092°03'0 0.0
2016-Dec-13 13:25N 46°46' W 092°03'0 0.0
2016-Dec-13 12:28N 46°46' W 092°03'0 0.0
2016-Dec-13 11:28N 46°46' W 092°03'0 0.1
2016-Dec-13 10:31N 46°46' W 092°03'0 0.0
2016-Dec-13 09:31N 46°46' W 092°03'0 0.0
2016-Dec-13 08:31N 46°46' W 092°03'0 0.1
2016-Dec-13 07:31N 46°46' W 092°03'0 0.0
2016-Dec-13 06:31N 46°46' W 092°03'0 0.2
2016-Dec-13 05:33N 46°46' W 092°03'2 2.3
2016-Dec-13 04:33N 46°45' W 092°06'1 0.6
2016-Dec-13 03:31N 46°44' W 092°06'0 0.0
2016-Dec-13 02:19N 46°44' W 092°06'0 0.0
2016-Dec-13 01:22N 46°44' W 092°06'0 0.0
2016-Dec-13 00:25N 46°44' W 092°06'0 0.0
2016-Dec-12 23:22N 46°44' W 092°06'0 0.0
2016-Dec-12 22:22N 46°44' W 092°06'0 0.0
2016-Dec-12 21:28N 46°44' W 092°06'0 0.0
2016-Dec-12 20:28N 46°44' W 092°06'0 0.0
2016-Dec-12 19:25N 46°44' W 092°06'0 0.0
2016-Dec-12 18:31N 46°44' W 092°06'0 0.0
2016-Dec-12 17:31N 46°44' W 092°06'0 0.0
2016-Dec-12 16:16N 46°44' W 092°06'0 0.0
2016-Dec-12 15:19N 46°44' W 092°06'0 0.0
2016-Dec-12 14:19N 46°44' W 092°06'0 0.0
2016-Dec-12 13:31N 46°44' W 092°06'0 0.0
2016-Dec-12 12:31N 46°44' W 092°06'0 0.0
2016-Dec-12 11:31N 46°44' W 092°06'0 0.0
2016-Dec-12 10:22N 46°44' W 092°06'0 0.0
2016-Dec-12 09:25N 46°44' W 092°06'0 0.0
2016-Dec-12 08:25N 46°44' W 092°06'0 0.0
2016-Dec-12 07:25N 46°44' W 092°06'0 0.0
2016-Dec-12 06:22N 46°44' W 092°06'0 0.0
2016-Dec-12 05:25N 46°44' W 092°06'0 0.0
2016-Dec-12 04:28N 46°44' W 092°06'0 0.0
2016-Dec-12 03:31N 46°44' W 092°06'0 0.0
2016-Dec-12 02:31N 46°44' W 092°06'0 0.0
2016-Dec-12 01:31N 46°44' W 092°06'  
Track history (hours):
 
Tides and Currents Weather Stations Pressure Air Temp Water Temp Dewpoint Dewpoint Depression Visibility Wind Speed Wind Dir Waves Ship Positions

Pineglen

Last reported at 2016-Dec-22 01:04 UTC. Time now 2017-Jan-18 18:05 UTC.
Position N 45°30' W 073°31'.
Warning: this ship's position is 27 days out of date.

Length 225 m; draft 8 m.

Type: Cargo ship. MMSI: 316001839.

Date/timePositionNaut miles runAvg speedWind from/ knotsBaromVisibWave heightAir tempDewpointWater temp
2016-Dec-22 01:04N 45°30' W 073°31'1 1.3
2016-Dec-22 00:24N 45°29' W 073°31'3 3.4
2016-Dec-21 23:33N 45°26' W 073°30'3 1.3
2016-Dec-21 21:10N 45°24' W 073°34'1 0.8
2016-Dec-21 19:33N 45°24' W 073°36'4 3.8
2016-Dec-21 18:33N 45°25' W 073°41'8 7.9
2016-Dec-21 17:33N 45°21' W 073°51'4 3.8
2016-Dec-21 16:33N 45°19' W 073°55'1 0.8
2016-Dec-21 15:33N 45°18' W 073°56'4 3.8
2016-Dec-21 14:33N 45°15' W 073°58'254 6.8
2016-Dec-20 01:26N 43°16' W 079°12'3 3.3
2016-Dec-20 00:33N 43°13' W 079°13'  
2016-Dec-15 12:30N 46°53' W 091°48'1010.8
2016-Dec-15 11:33N 46°48' W 092°00'2 2.3
2016-Dec-15 10:33N 46°45' W 092°02'0 0.0
2016-Dec-15 09:33N 46°45' W 092°02'0 0.0
2016-Dec-15 08:33N 46°45' W 092°02'0 0.0
2016-Dec-15 07:33N 46°45' W 092°02'0 0.0
2016-Dec-15 06:33N 46°45' W 092°02'0 0.0
2016-Dec-15 05:21N 46°45' W 092°02'0 0.0
2016-Dec-15 04:33N 46°45' W 092°02'0 0.0
2016-Dec-15 03:33N 46°45' W 092°02'0 0.0
2016-Dec-15 02:21N 46°45' W 092°02'0 0.0
2016-Dec-15 01:24N 46°45' W 092°02'0 0.0
2016-Dec-15 00:27N 46°45' W 092°02'0 0.0
2016-Dec-14 23:30N 46°45' W 092°02'0 0.0
2016-Dec-14 22:30N 46°45' W 092°02'0 0.0
2016-Dec-14 21:30N 46°45' W 092°02'0 0.0
2016-Dec-14 20:27N 46°45' W 092°02'0 0.0
2016-Dec-14 19:33N 46°45' W 092°02'0 0.0
2016-Dec-14 18:33N 46°45' W 092°02'0 0.0
2016-Dec-14 17:33N 46°45' W 092°02'0 0.0
2016-Dec-14 16:33N 46°45' W 092°02'0 0.0
2016-Dec-14 15:33N 46°45' W 092°02'0 0.0
2016-Dec-14 14:33N 46°45' W 092°02'0 0.0
2016-Dec-14 13:24N 46°45' W 092°02'0 0.0
2016-Dec-14 12:24N 46°45' W 092°02'0 0.0
2016-Dec-14 11:24N 46°45' W 092°02'0 0.1
2016-Dec-14 10:27N 46°45' W 092°02'0 0.1
2016-Dec-14 09:27N 46°46' W 092°02'0 0.0
2016-Dec-14 08:27N 46°46' W 092°02'0 0.0
2016-Dec-14 07:30N 46°46' W 092°02'0 0.0
2016-Dec-14 06:27N 46°46' W 092°02'0 0.0
2016-Dec-14 05:33N 46°46' W 092°02'0 0.0
2016-Dec-14 04:33N 46°46' W 092°02'0 0.0
2016-Dec-14 03:33N 46°46' W 092°02'0 0.0
2016-Dec-14 02:33N 46°46' W 092°02'0 0.0
2016-Dec-14 01:21N 46°46' W 092°02'0 0.0
2016-Dec-14 00:33N 46°46' W 092°02'0 0.0
2016-Dec-13 23:33N 46°46' W 092°02'0 0.0
2016-Dec-13 22:33N 46°46' W 092°02'0 0.0
2016-Dec-13 21:24N 46°46' W 092°02'1 0.7
2016-Dec-13 20:31N 46°46' W 092°03'0 0.0
2016-Dec-13 19:22N 46°46' W 092°03'0 0.0
2016-Dec-13 18:22N 46°46' W 092°03'0 0.0
2016-Dec-13 17:22N 46°46' W 092°03'0 0.0
2016-Dec-13 16:07N 46°46' W 092°03'0 0.0
2016-Dec-13 15:25N 46°46' W 092°03'0 0.0
2016-Dec-13 14:25N 46°46' W 092°03'0 0.0
2016-Dec-13 13:25N 46°46' W 092°03'0 0.0
2016-Dec-13 12:28N 46°46' W 092°03'0 0.0
2016-Dec-13 11:28N 46°46' W 092°03'0 0.1
2016-Dec-13 10:31N 46°46' W 092°03'0 0.0
2016-Dec-13 09:31N 46°46' W 092°03'0 0.0
2016-Dec-13 08:31N 46°46' W 092°03'0 0.1
2016-Dec-13 07:31N 46°46' W 092°03'0 0.0
2016-Dec-13 06:31N 46°46' W 092°03'0 0.2
2016-Dec-13 05:33N 46°46' W 092°03'2 2.3
2016-Dec-13 04:33N 46°45' W 092°06'1 0.6
2016-Dec-13 03:31N 46°44' W 092°06'0 0.0
2016-Dec-13 02:19N 46°44' W 092°06'0 0.0
2016-Dec-13 01:22N 46°44' W 092°06'0 0.0
2016-Dec-13 00:25N 46°44' W 092°06'0 0.0
2016-Dec-12 23:22N 46°44' W 092°06'0 0.0
2016-Dec-12 22:22N 46°44' W 092°06'0 0.0
2016-Dec-12 21:28N 46°44' W 092°06'0 0.0
2016-Dec-12 20:28N 46°44' W 092°06'0 0.0
2016-Dec-12 19:25N 46°44' W 092°06'0 0.0
2016-Dec-12 18:31N 46°44' W 092°06'0 0.0
2016-Dec-12 17:31N 46°44' W 092°06'0 0.0
2016-Dec-12 16:16N 46°44' W 092°06'0 0.0
2016-Dec-12 15:19N 46°44' W 092°06'0 0.0
2016-Dec-12 14:19N 46°44' W 092°06'0 0.0
2016-Dec-12 13:31N 46°44' W 092°06'0 0.0
2016-Dec-12 12:31N 46°44' W 092°06'0 0.0
2016-Dec-12 11:31N 46°44' W 092°06'0 0.0
2016-Dec-12 10:22N 46°44' W 092°06'0 0.0
2016-Dec-12 09:25N 46°44' W 092°06'0 0.0
2016-Dec-12 08:25N 46°44' W 092°06'0 0.0
2016-Dec-12 07:25N 46°44' W 092°06'0 0.0
2016-Dec-12 06:22N 46°44' W 092°06'0 0.0
2016-Dec-12 05:25N 46°44' W 092°06'0 0.0
2016-Dec-12 04:28N 46°44' W 092°06'0 0.0
2016-Dec-12 03:31N 46°44' W 092°06'0 0.0
2016-Dec-12 02:31N 46°44' W 092°06'0 0.0
2016-Dec-12 01:31N 46°44' W 092°06'  

Dump ship's entire track history